createdAt,value
2023-02-02T00:04:46.866Z,4.90
2023-02-02T00:14:53.312Z,6.00
2023-02-02T00:24:59.637Z,4.60
2023-02-02T00:35:06.030Z,4.20
2023-02-02T00:45:18.288Z,4.90
2023-02-02T00:55:25.272Z,5.20
2023-02-02T01:05:32.967Z,6.20
2023-02-02T01:15:39.374Z,7.30
2023-02-02T01:25:46.949Z,8.20
2023-02-02T01:35:55.602Z,8.50
2023-02-02T01:46:02.085Z,8.70
2023-02-02T01:56:09.582Z,9.00
2023-02-02T02:06:20.360Z,9.30
2023-02-02T02:16:58.906Z,8.40
2023-02-02T02:27:22.870Z,7.00
2023-02-02T02:37:40.716Z,5.10
2023-02-02T02:47:46.217Z,5.40
2023-02-02T02:58:15.117Z,5.70
2023-02-02T03:08:21.352Z,5.30
2023-02-02T03:18:32.018Z,5.30
2023-02-02T03:28:38.546Z,5.00
2023-02-02T03:38:44.850Z,5.20
2023-02-02T03:48:51.283Z,4.90
2023-02-02T03:58:57.635Z,4.80
2023-02-02T04:09:04.272Z,4.70
2023-02-02T04:19:10.877Z,6.10
2023-02-02T04:29:17.274Z,5.60
2023-02-02T04:39:23.614Z,7.10
2023-02-02T04:49:29.944Z,6.50
2023-02-02T04:59:36.197Z,6.10
2023-02-02T05:09:42.487Z,7.20
2023-02-02T05:19:48.767Z,7.50
2023-02-02T05:29:55.107Z,7.80
2023-02-02T05:40:01.404Z,8.20
2023-02-02T05:50:08.137Z,8.00
2023-02-02T06:00:15.041Z,11.70
2023-02-02T06:10:21.596Z,10.90
2023-02-02T06:20:28.137Z,13.30
2023-02-02T06:30:34.514Z,11.40
2023-02-02T06:40:41.378Z,8.30
2023-02-02T06:50:47.643Z,8.20
2023-02-02T07:00:54.039Z,8.30
2023-02-02T07:11:12.859Z,7.60
2023-02-02T07:21:25.913Z,10.30
2023-02-02T07:31:35.583Z,9.80
2023-02-02T07:41:42.556Z,11.70
2023-02-02T07:51:50.424Z,10.10
2023-02-02T08:01:57.124Z,10.10
2023-02-02T08:12:03.572Z,10.30
2023-02-02T08:22:10.431Z,10.50
2023-02-02T08:32:16.805Z,11.20
2023-02-02T08:42:23.111Z,10.90
2023-02-02T08:52:29.478Z,12.60
2023-02-02T09:02:35.909Z,12.80
2023-02-02T09:12:42.266Z,5.30
2023-02-02T09:22:48.902Z,5.50
2023-02-02T09:32:55.261Z,5.60
2023-02-02T09:43:29.430Z,6.80
2023-02-02T09:53:54.660Z,6.80
2023-02-02T10:04:13.719Z,8.00
2023-02-02T10:14:26.248Z,8.90
2023-02-02T10:24:33.192Z,6.70
2023-02-02T10:34:43.410Z,7.20
2023-02-02T10:45:11.617Z,6.50
2023-02-02T10:55:33.820Z,5.40
2023-02-02T11:05:59.089Z,5.10
2023-02-02T11:16:17.290Z,5.50
2023-02-02T11:26:25.710Z,7.40
2023-02-02T11:36:32.087Z,7.20
2023-02-02T11:46:39.650Z,6.40
2023-02-02T11:56:51.510Z,5.90
2023-02-02T12:06:58.253Z,6.50
2023-02-02T12:17:46.421Z,5.30
2023-02-02T12:27:55.506Z,5.40
2023-02-02T12:38:23.260Z,5.20
2023-02-02T12:48:47.276Z,6.60
2023-02-02T12:59:16.293Z,6.70
2023-02-02T13:09:22.558Z,6.20
2023-02-02T13:19:38.807Z,7.70
2023-02-02T13:29:48.339Z,6.85
2023-02-02T13:39:59.024Z,8.60
2023-02-02T13:50:13.325Z,7.00
2023-02-02T14:00:20.060Z,7.00
2023-02-02T14:10:29.226Z,6.70
2023-02-02T14:20:55.920Z,7.50
2023-02-02T14:31:28.343Z,10.60
2023-02-02T14:42:16.899Z,9.30
2023-02-02T14:52:24.406Z,8.50
2023-02-02T15:02:30.683Z,7.50
2023-02-02T15:12:46.320Z,8.70
2023-02-02T15:23:02.055Z,12.00
2023-02-02T15:33:19.365Z,18.50
2023-02-02T15:43:28.274Z,9.70
2023-02-02T15:53:47.531Z,11.70
2023-02-02T16:03:56.094Z,10.00
2023-02-02T16:14:08.304Z,8.90
2023-02-02T16:24:22.719Z,12.60
2023-02-02T16:34:41.542Z,10.90
2023-02-02T16:44:50.060Z,10.20
2023-02-02T16:54:57.758Z,10.90
2023-02-02T17:05:12.158Z,9.10
2023-02-02T17:15:18.574Z,9.60
2023-02-02T17:25:34.702Z,9.00
2023-02-02T17:35:53.840Z,11.60
2023-02-02T17:46:02.473Z,14.50
2023-02-02T17:56:09.029Z,14.00
2023-02-02T18:06:15.572Z,13.70
2023-02-02T18:16:23.581Z,9.20
2023-02-02T18:26:30.310Z,11.70
2023-02-02T18:36:37.395Z,8.60
2023-02-02T18:46:44.004Z,7.70
2023-02-02T18:56:50.565Z,8.40
2023-02-02T19:07:15.636Z,6.20
2023-02-02T19:17:23.549Z,6.10
2023-02-02T19:27:31.480Z,7.20
2023-02-02T19:37:40.335Z,10.90
2023-02-02T19:47:46.882Z,12.20
2023-02-02T19:58:02.704Z,9.90
2023-02-02T20:08:21.115Z,8.10
2023-02-02T20:19:08.367Z,8.00
2023-02-02T20:29:20.816Z,7.10
2023-02-02T20:39:37.048Z,7.40
2023-02-02T20:49:44.031Z,8.10
2023-02-02T20:59:51.177Z,9.10
2023-02-02T21:09:57.686Z,9.70
2023-02-02T21:20:04.020Z,11.00
2023-02-02T21:30:12.137Z,9.50
2023-02-02T21:40:25.873Z,9.50
2023-02-02T21:50:42.437Z,12.00
2023-02-02T22:00:49.804Z,9.30
2023-02-02T22:10:56.179Z,7.70
2023-02-02T22:21:02.454Z,7.60
2023-02-02T22:31:07.844Z,6.95
2023-02-02T22:41:14.281Z,6.80
2023-02-02T22:51:20.719Z,7.80
2023-02-02T23:01:27.042Z,7.80
2023-02-02T23:11:33.395Z,8.60
2023-02-02T23:21:39.728Z,8.80
2023-02-02T23:31:46.033Z,9.10
2023-02-02T23:41:52.720Z,8.80
2023-02-02T23:51:59.023Z,6.60
